createdAt,value
2023-04-30T00:02:14.738Z,25.27
2023-04-30T00:04:42.997Z,28.83
2023-04-30T00:07:11.947Z,28.30
2023-04-30T00:09:41.492Z,27.00
2023-04-30T00:12:09.679Z,30.27
2023-04-30T00:14:37.898Z,34.50
2023-04-30T00:17:06.095Z,24.57
2023-04-30T00:19:34.335Z,29.03
2023-04-30T00:22:02.787Z,33.20
2023-04-30T00:24:31.002Z,28.07
2023-04-30T00:27:00.929Z,29.07
2023-04-30T00:29:29.124Z,27.80
2023-04-30T00:31:57.407Z,28.40
2023-04-30T00:34:25.783Z,29.33
2023-04-30T00:36:54.056Z,28.10
2023-04-30T00:39:22.227Z,30.83
2023-04-30T00:41:50.423Z,24.87
2023-04-30T00:44:20.049Z,29.50
2023-04-30T00:46:48.257Z,20.87
2023-04-30T00:49:16.415Z,25.10
2023-04-30T00:51:45.875Z,27.67
2023-04-30T00:54:14.421Z,28.40
2023-04-30T00:56:42.720Z,27.37
2023-04-30T00:59:10.962Z,22.57
2023-04-30T01:01:41.188Z,28.90
2023-04-30T01:04:09.496Z,24.60
2023-04-30T01:06:38.381Z,28.30
2023-04-30T01:09:06.849Z,24.00
2023-04-30T01:11:42.323Z,29.10
2023-04-30T01:14:13.983Z,25.13
2023-04-30T01:16:45.542Z,22.50
2023-04-30T01:19:20.613Z,27.00
2023-04-30T01:21:49.305Z,25.47
2023-04-30T01:24:24.554Z,22.10
2023-04-30T01:27:01.553Z,26.20
2023-04-30T01:29:32.177Z,26.40
2023-04-30T01:32:00.897Z,25.40
2023-04-30T01:34:29.095Z,29.50
2023-04-30T01:37:05.415Z,21.80
2023-04-30T01:39:39.667Z,25.23
2023-04-30T01:42:09.911Z,23.40
2023-04-30T01:44:47.543Z,24.87
2023-04-30T01:47:21.606Z,26.77
2023-04-30T01:49:53.836Z,25.00
2023-04-30T01:52:26.742Z,22.63
2023-04-30T01:54:57.341Z,21.10
2023-04-30T01:57:30.921Z,22.63
2023-04-30T02:00:00.635Z,19.63
2023-04-30T02:02:28.965Z,20.60
2023-04-30T02:04:57.187Z,18.70
2023-04-30T02:07:33.792Z,20.10
2023-04-30T02:10:01.984Z,18.80
2023-04-30T02:12:30.601Z,15.50
2023-04-30T02:14:58.881Z,19.10
2023-04-30T02:17:28.454Z,17.83
2023-04-30T02:19:56.734Z,17.93
2023-04-30T02:22:25.133Z,16.13
2023-04-30T02:24:55.643Z,18.03
2023-04-30T02:27:24.954Z,19.23
2023-04-30T02:29:53.566Z,16.40
2023-04-30T02:32:21.956Z,17.20
2023-04-30T02:34:51.662Z,16.93
2023-04-30T02:37:19.870Z,15.60
2023-04-30T02:39:48.121Z,18.73
2023-04-30T02:42:16.466Z,17.70
2023-04-30T02:44:44.642Z,15.37
2023-04-30T02:47:12.827Z,19.20
2023-04-30T02:49:41.082Z,18.67
2023-04-30T02:52:10.910Z,17.40
2023-04-30T02:54:39.069Z,15.00
2023-04-30T02:57:07.480Z,19.37
2023-04-30T02:59:35.715Z,18.23
2023-04-30T03:02:03.981Z,15.30
2023-04-30T03:04:32.261Z,15.90
2023-04-30T03:07:00.818Z,16.03
2023-04-30T03:09:32.103Z,18.13
2023-04-30T03:12:00.334Z,16.30
2023-04-30T03:14:28.544Z,15.37
2023-04-30T03:16:56.742Z,22.60
2023-04-30T03:19:25.636Z,14.30
2023-04-30T03:21:54.141Z,21.23
2023-04-30T03:24:22.410Z,15.80
2023-04-30T03:26:51.997Z,13.60
2023-04-30T03:29:20.374Z,13.07
2023-04-30T03:31:48.650Z,15.10
2023-04-30T03:34:17.504Z,15.17
2023-04-30T03:36:45.821Z,17.03
2023-04-30T03:39:14.149Z,16.97
2023-04-30T03:41:42.344Z,19.40
2023-04-30T03:44:15.617Z,19.40
2023-04-30T03:46:44.218Z,23.77
2023-04-30T03:49:12.595Z,14.73
2023-04-30T03:51:41.861Z,15.47
2023-04-30T03:54:10.545Z,14.17
2023-04-30T03:56:39.154Z,19.77
2023-04-30T03:59:07.766Z,20.13
2023-04-30T04:01:37.389Z,20.17
2023-04-30T04:04:05.762Z,14.73
2023-04-30T04:06:34.073Z,13.53
2023-04-30T04:09:02.324Z,14.03
2023-04-30T04:11:30.627Z,16.83
2023-04-30T04:13:58.840Z,13.67
2023-04-30T04:16:27.251Z,13.43
2023-04-30T04:18:56.883Z,14.23
2023-04-30T04:21:25.117Z,16.87
2023-04-30T04:23:53.315Z,14.60
2023-04-30T04:26:21.570Z,17.27
2023-04-30T04:28:50.127Z,17.47
2023-04-30T04:31:18.395Z,16.17
2023-04-30T04:33:46.890Z,14.47
2023-04-30T04:36:16.662Z,18.23
2023-04-30T04:38:44.855Z,14.10
2023-04-30T04:41:13.089Z,15.37
2023-04-30T04:43:42.480Z,17.53
2023-04-30T04:46:12.975Z,17.73
2023-04-30T04:48:42.856Z,15.57
2023-04-30T04:51:11.291Z,16.57
2023-04-30T04:53:40.967Z,12.73
2023-04-30T04:56:09.455Z,16.30
2023-04-30T04:58:37.920Z,17.57
2023-04-30T05:01:06.382Z,15.77
2023-04-30T05:03:37.048Z,14.97
2023-04-30T05:06:05.606Z,14.00
2023-04-30T05:08:33.882Z,15.97
2023-04-30T05:11:03.439Z,20.67
2023-04-30T05:13:31.737Z,17.90
2023-04-30T05:15:59.925Z,17.90
2023-04-30T05:18:28.113Z,17.87
2023-04-30T05:20:56.294Z,16.53
2023-04-30T05:23:24.553Z,13.00
2023-04-30T05:25:53.460Z,21.50
2023-04-30T05:28:23.116Z,19.60
2023-04-30T05:30:51.798Z,14.13
2023-04-30T05:33:20.036Z,26.77
2023-04-30T05:35:48.267Z,17.60
2023-04-30T05:38:16.494Z,16.70
2023-04-30T05:40:44.754Z,20.13
2023-04-30T05:43:12.988Z,48.80
2023-04-30T05:45:42.614Z,27.07
2023-04-30T05:48:10.895Z,47.50
2023-04-30T05:50:39.253Z,22.90
2023-04-30T05:53:08.488Z,55.37
2023-04-30T05:55:36.791Z,31.37
2023-04-30T05:58:05.035Z,45.23
2023-04-30T06:00:33.284Z,39.43
2023-04-30T06:03:02.904Z,19.67
2023-04-30T06:05:31.267Z,23.60
2023-04-30T06:07:59.503Z,20.37
2023-04-30T06:10:27.977Z,20.93
2023-04-30T06:12:56.265Z,33.00
2023-04-30T06:15:24.891Z,29.00
2023-04-30T06:17:53.171Z,24.43
2023-04-30T06:20:22.900Z,30.23
2023-04-30T06:22:51.129Z,27.00
2023-04-30T06:25:20.260Z,26.23
2023-04-30T06:27:48.478Z,22.00
2023-04-30T06:30:16.870Z,35.70
2023-04-30T06:32:45.155Z,39.70
2023-04-30T06:35:13.405Z,31.80
2023-04-30T06:37:43.082Z,41.93
2023-04-30T06:40:11.524Z,46.53
2023-04-30T06:42:39.808Z,57.60
2023-04-30T06:45:08.591Z,36.80
2023-04-30T06:47:38.326Z,43.50
2023-04-30T06:50:07.196Z,52.63
2023-04-30T06:52:35.371Z,34.27
2023-04-30T06:55:05.202Z,53.93
2023-04-30T06:57:33.799Z,40.17
2023-04-30T07:00:02.253Z,44.70
2023-04-30T07:02:30.514Z,51.87
2023-04-30T07:05:00.060Z,35.10
2023-04-30T07:07:28.560Z,36.93
2023-04-30T07:09:57.098Z,28.83
2023-04-30T07:12:27.101Z,31.43
2023-04-30T07:14:55.616Z,41.87
2023-04-30T07:17:26.109Z,34.30
2023-04-30T07:19:56.130Z,30.00
2023-04-30T07:22:24.603Z,36.87
2023-04-30T07:24:52.840Z,35.13
2023-04-30T07:27:21.094Z,42.80
2023-04-30T07:29:50.808Z,32.33
2023-04-30T07:32:19.006Z,31.20
2023-04-30T07:34:47.273Z,35.37
2023-04-30T07:37:16.028Z,34.00
2023-04-30T07:39:44.379Z,24.20
2023-04-30T07:42:12.659Z,37.83
2023-04-30T07:44:41.225Z,45.17
2023-04-30T07:47:10.864Z,30.20
2023-04-30T07:49:39.230Z,35.00
2023-04-30T07:52:10.881Z,35.50
2023-04-30T07:54:40.259Z,31.30
2023-04-30T07:57:08.679Z,45.20
2023-04-30T07:59:37.023Z,44.03
2023-04-30T08:02:05.405Z,33.00
2023-04-30T08:04:35.115Z,30.70
2023-04-30T08:07:04.610Z,39.20
2023-04-30T08:09:35.923Z,35.13
2023-04-30T08:12:05.040Z,31.43
2023-04-30T08:14:34.184Z,30.20
2023-04-30T08:17:03.072Z,32.40
2023-04-30T08:19:31.438Z,25.23
2023-04-30T08:22:01.376Z,30.77
2023-04-30T08:24:29.646Z,25.70
2023-04-30T08:26:57.964Z,22.80
2023-04-30T08:29:26.373Z,21.53
2023-04-30T08:31:54.760Z,21.23
2023-04-30T08:34:23.120Z,23.47
2023-04-30T08:36:51.440Z,27.37
2023-04-30T08:39:21.033Z,21.10
2023-04-30T08:41:53.510Z,17.63
2023-04-30T08:44:24.107Z,13.83
2023-04-30T08:46:54.911Z,14.53
2023-04-30T08:49:24.820Z,13.57
2023-04-30T08:51:53.488Z,16.40
2023-04-30T08:54:24.164Z,15.67
2023-04-30T08:56:52.416Z,12.17
2023-04-30T08:59:21.338Z,17.57
2023-04-30T09:01:52.185Z,20.97
2023-04-30T09:04:21.989Z,13.00
2023-04-30T09:06:50.271Z,16.10
2023-04-30T09:09:18.679Z,12.30
2023-04-30T09:11:48.205Z,10.50
2023-04-30T09:14:25.711Z,15.60
2023-04-30T09:16:54.216Z,13.23
2023-04-30T09:19:26.181Z,8.93
2023-04-30T09:21:54.651Z,9.03
2023-04-30T09:24:22.887Z,11.63
2023-04-30T09:26:52.820Z,13.33
2023-04-30T09:29:21.108Z,9.80
2023-04-30T09:31:49.409Z,12.73
2023-04-30T09:34:17.819Z,8.40
2023-04-30T09:36:54.833Z,10.80
2023-04-30T09:39:23.232Z,6.63
2023-04-30T09:41:53.443Z,7.60
2023-04-30T09:44:31.303Z,8.30
2023-04-30T09:47:00.264Z,7.60
2023-04-30T09:49:28.836Z,7.20
2023-04-30T09:51:57.532Z,6.80
2023-04-30T09:54:27.810Z,6.70
2023-04-30T09:56:58.080Z,5.90
2023-04-30T09:59:32.056Z,6.90
2023-04-30T10:02:01.771Z,10.40
2023-04-30T10:04:32.079Z,7.80
2023-04-30T10:07:00.901Z,7.60
2023-04-30T10:09:30.774Z,8.93
2023-04-30T10:12:01.901Z,3.30
2023-04-30T10:14:34.247Z,3.97
2023-04-30T10:17:05.594Z,3.93
2023-04-30T10:19:35.841Z,3.70
2023-04-30T10:22:04.124Z,4.23
2023-04-30T10:24:32.318Z,6.50
2023-04-30T10:27:03.123Z,6.57
2023-04-30T10:29:31.308Z,4.70
2023-04-30T10:32:01.255Z,3.77
2023-04-30T10:34:35.051Z,5.10
2023-04-30T10:37:07.888Z,5.27
2023-04-30T10:39:36.770Z,3.87
2023-04-30T10:42:07.892Z,5.30
2023-04-30T10:44:36.595Z,5.20
2023-04-30T10:47:05.573Z,4.67
2023-04-30T10:49:34.787Z,4.40
2023-04-30T10:52:03.543Z,3.47
2023-04-30T10:54:33.075Z,3.60
2023-04-30T10:57:14.049Z,4.07
2023-04-30T10:59:46.820Z,4.83
2023-04-30T11:02:17.976Z,5.27
2023-04-30T11:05:04.691Z,2.60
2023-04-30T11:07:33.069Z,4.33
2023-04-30T11:10:03.191Z,2.93
2023-04-30T11:12:32.742Z,2.97
2023-04-30T11:15:02.722Z,4.00
2023-04-30T11:17:31.028Z,7.00
2023-04-30T11:20:01.611Z,3.53
2023-04-30T11:22:35.883Z,5.17
2023-04-30T11:25:09.517Z,3.93
2023-04-30T11:27:40.004Z,4.93
2023-04-30T11:30:12.678Z,3.87
2023-04-30T11:32:41.738Z,4.67
2023-04-30T11:35:10.569Z,3.77
2023-04-30T11:37:39.960Z,4.50
2023-04-30T11:40:10.862Z,5.53
2023-04-30T11:42:44.901Z,4.30
2023-04-30T11:45:17.401Z,5.67
2023-04-30T11:47:46.805Z,6.00
2023-04-30T11:50:16.913Z,3.80
2023-04-30T11:52:50.263Z,7.70
2023-04-30T11:55:19.395Z,5.37
2023-04-30T11:57:50.237Z,9.53
2023-04-30T12:00:19.358Z,4.50
2023-04-30T12:02:48.534Z,13.60
2023-04-30T12:05:17.994Z,9.17
2023-04-30T12:07:47.427Z,4.60
2023-04-30T12:10:15.867Z,10.70
2023-04-30T12:12:44.811Z,5.03
2023-04-30T12:15:15.592Z,8.63
2023-04-30T12:17:44.164Z,22.50
2023-04-30T12:20:13.533Z,42.40
2023-04-30T12:22:42.282Z,2.57
2023-04-30T12:25:14.709Z,15.83
2023-04-30T12:27:43.323Z,17.43
2023-04-30T12:30:11.907Z,10.10
2023-04-30T12:32:42.589Z,12.33
2023-04-30T12:35:11.455Z,13.60
2023-04-30T12:37:43.363Z,10.33
2023-04-30T12:40:12.042Z,12.63
2023-04-30T12:42:40.450Z,9.50
2023-04-30T12:45:09.514Z,11.60
2023-04-30T12:47:40.670Z,9.37
2023-04-30T12:50:14.168Z,7.53
2023-04-30T12:52:44.021Z,6.40
2023-04-30T12:55:18.025Z,9.17
2023-04-30T12:58:01.147Z,12.43
2023-04-30T13:00:29.333Z,7.17
2023-04-30T13:02:57.946Z,7.93
2023-04-30T13:05:27.996Z,8.00
2023-04-30T13:08:03.454Z,6.87
2023-04-30T13:10:32.240Z,6.50
2023-04-30T13:13:00.560Z,7.37
2023-04-30T13:15:28.954Z,7.17
2023-04-30T13:17:57.305Z,6.93
2023-04-30T13:20:26.454Z,6.50
2023-04-30T13:22:56.024Z,5.53
2023-04-30T13:25:24.242Z,6.50
2023-04-30T13:27:52.426Z,9.00
2023-04-30T13:30:21.006Z,25.15
2023-04-30T13:32:49.287Z,27.37
2023-04-30T13:35:17.812Z,18.07
2023-04-30T13:37:47.938Z,16.53
2023-04-30T13:40:17.549Z,12.67
2023-04-30T13:42:47.034Z,11.17
2023-04-30T13:45:16.180Z,5.90
2023-04-30T13:47:44.596Z,10.23
2023-04-30T13:50:13.264Z,4.22
2023-04-30T13:52:41.470Z,5.80
2023-04-30T13:55:10.252Z,7.80
2023-04-30T13:57:39.872Z,3.20
2023-04-30T14:00:09.131Z,5.93
2023-04-30T14:02:37.563Z,6.60
2023-04-30T14:05:06.902Z,4.03
2023-04-30T14:07:35.381Z,10.03
2023-04-30T14:10:03.689Z,4.60
2023-04-30T14:12:31.964Z,3.93
2023-04-30T14:15:02.162Z,4.50
2023-04-30T14:17:31.494Z,5.20
2023-04-30T14:19:59.724Z,4.90
2023-04-30T14:22:28.059Z,4.03
2023-04-30T14:24:56.256Z,3.60
2023-04-30T14:27:25.363Z,6.83
2023-04-30T14:29:53.705Z,3.37
2023-04-30T14:32:23.456Z,3.93
2023-04-30T14:34:51.674Z,3.30
2023-04-30T14:37:19.885Z,3.70
2023-04-30T14:39:48.356Z,6.40
2023-04-30T14:42:16.673Z,4.23
2023-04-30T14:44:44.880Z,3.90
2023-04-30T14:47:13.515Z,4.70
2023-04-30T14:49:43.086Z,3.93
2023-04-30T14:52:11.283Z,4.30
2023-04-30T14:54:39.745Z,4.10
2023-04-30T14:57:08.914Z,3.00
2023-04-30T14:59:39.955Z,2.77
2023-04-30T15:02:09.235Z,3.87
2023-04-30T15:04:37.654Z,3.87
2023-04-30T15:07:07.393Z,4.60
2023-04-30T15:09:35.860Z,3.53
2023-04-30T15:12:04.204Z,4.40
2023-04-30T15:14:32.464Z,3.33
2023-04-30T15:17:01.077Z,3.10
2023-04-30T15:19:29.381Z,4.00
2023-04-30T15:21:57.946Z,3.60
2023-04-30T15:24:27.473Z,2.80
2023-04-30T15:26:55.746Z,3.57
2023-04-30T15:29:24.395Z,7.43
2023-04-30T15:31:54.350Z,2.77
2023-04-30T15:34:23.330Z,2.60
2023-04-30T15:36:51.677Z,2.80
2023-04-30T15:39:21.837Z,2.40
2023-04-30T15:41:51.511Z,4.83
2023-04-30T15:44:19.700Z,8.73
2023-04-30T15:46:48.089Z,2.63
2023-04-30T15:49:16.792Z,3.33
2023-04-30T15:51:45.493Z,10.83
2023-04-30T15:54:13.970Z,11.97
2023-04-30T15:56:42.671Z,5.90
2023-04-30T15:59:16.944Z,8.10
2023-04-30T16:01:46.632Z,6.73
2023-04-30T16:04:15.074Z,5.23
2023-04-30T16:06:43.417Z,4.07
2023-04-30T16:09:12.370Z,3.63
2023-04-30T16:11:40.785Z,6.83
2023-04-30T16:14:09.089Z,5.77
2023-04-30T16:16:38.635Z,4.67
2023-04-30T16:19:08.239Z,6.10
2023-04-30T16:21:38.461Z,3.83
2023-04-30T16:24:07.073Z,4.90
2023-04-30T16:26:36.148Z,3.40
2023-04-30T16:29:05.022Z,5.33
2023-04-30T16:31:33.437Z,3.40
2023-04-30T16:34:03.065Z,3.40
2023-04-30T16:36:32.807Z,5.20
2023-04-30T16:39:01.314Z,3.53
2023-04-30T16:41:29.496Z,3.77
2023-04-30T16:43:57.986Z,5.47
2023-04-30T16:46:26.342Z,1.80
2023-04-30T16:48:54.797Z,2.30
2023-04-30T16:51:24.395Z,2.17
2023-04-30T16:53:52.640Z,2.50
2023-04-30T16:56:21.358Z,2.60
2023-04-30T16:58:49.916Z,2.33
2023-04-30T17:01:18.233Z,2.77
2023-04-30T17:03:47.187Z,4.40
2023-04-30T17:06:15.707Z,2.33
2023-04-30T17:08:45.377Z,4.27
2023-04-30T17:11:13.600Z,3.10
2023-04-30T17:13:41.791Z,3.63
2023-04-30T17:16:10.061Z,2.97
2023-04-30T17:18:38.364Z,2.33
2023-04-30T17:21:06.521Z,4.20
2023-04-30T17:23:34.719Z,2.33
2023-04-30T17:26:05.614Z,4.03
2023-04-30T17:28:33.896Z,2.63
2023-04-30T17:31:03.961Z,3.80
2023-04-30T17:33:32.242Z,3.37
2023-04-30T17:36:00.450Z,3.40
2023-04-30T17:38:29.024Z,5.03
2023-04-30T17:40:57.716Z,3.40
2023-04-30T17:43:27.581Z,3.37
2023-04-30T17:45:57.241Z,2.90
2023-04-30T17:48:25.615Z,4.50
2023-04-30T17:50:53.784Z,3.40
2023-04-30T17:53:21.974Z,2.97
2023-04-30T17:55:50.180Z,5.07
2023-04-30T17:58:18.439Z,2.00
2023-04-30T18:00:48.526Z,4.60
2023-04-30T18:03:16.820Z,2.90
2023-04-30T18:05:45.150Z,2.47
2023-04-30T18:08:13.382Z,4.57
2023-04-30T18:10:41.676Z,10.00
2023-04-30T18:13:10.274Z,4.50
2023-04-30T18:15:38.622Z,5.00
2023-04-30T18:18:08.252Z,4.30
2023-04-30T18:20:37.062Z,3.80
2023-04-30T18:23:08.535Z,3.77
2023-04-30T18:25:38.039Z,6.97
2023-04-30T18:28:07.628Z,6.27
2023-04-30T18:30:36.132Z,3.63
2023-04-30T18:33:04.628Z,10.93
2023-04-30T18:35:34.421Z,5.13
2023-04-30T18:38:02.760Z,3.70
2023-04-30T18:40:30.976Z,4.20
2023-04-30T18:42:59.152Z,5.40
2023-04-30T18:45:27.469Z,4.20
2023-04-30T18:47:55.729Z,4.83
2023-04-30T18:50:24.267Z,5.00
2023-04-30T18:52:53.846Z,5.90
2023-04-30T18:55:22.120Z,4.30
2023-04-30T18:57:50.686Z,4.60
2023-04-30T19:00:18.990Z,4.80
2023-04-30T19:02:47.327Z,4.60
2023-04-30T19:05:15.733Z,5.40
2023-04-30T19:07:43.951Z,3.40
2023-04-30T19:10:13.753Z,5.60
2023-04-30T19:12:43.886Z,4.57
2023-04-30T19:15:14.954Z,4.90
2023-04-30T19:17:43.360Z,5.70
2023-04-30T19:20:12.460Z,2.73
2023-04-30T19:22:40.868Z,3.57
2023-04-30T19:25:09.523Z,5.77
2023-04-30T19:27:39.071Z,4.47
2023-04-30T19:30:07.922Z,4.30
2023-04-30T19:32:36.889Z,4.50
2023-04-30T19:35:05.239Z,3.83
2023-04-30T19:37:33.451Z,3.17
2023-04-30T19:40:01.654Z,3.87
2023-04-30T19:42:30.346Z,4.10
2023-04-30T19:44:59.888Z,3.90
2023-04-30T19:47:28.140Z,3.30
2023-04-30T19:49:56.827Z,5.43
2023-04-30T19:52:25.273Z,4.00
2023-04-30T19:54:53.479Z,3.90
2023-04-30T19:57:21.730Z,3.60
2023-04-30T19:59:49.873Z,4.63
2023-04-30T20:02:19.479Z,5.63
2023-04-30T20:04:47.748Z,5.70
2023-04-30T20:07:15.958Z,3.83
2023-04-30T20:09:44.156Z,3.20
2023-04-30T20:12:12.417Z,2.27
2023-04-30T20:14:40.884Z,8.10
2023-04-30T20:17:09.125Z,5.10
2023-04-30T20:19:38.942Z,6.50
2023-04-30T20:22:12.897Z,4.20
2023-04-30T20:24:44.301Z,3.73
2023-04-30T20:27:12.733Z,3.77
2023-04-30T20:29:41.486Z,3.27
2023-04-30T20:32:10.186Z,6.97
2023-04-30T20:34:40.021Z,5.70
2023-04-30T20:37:08.318Z,3.77
2023-04-30T20:39:37.146Z,5.20
2023-04-30T20:42:05.437Z,7.23
2023-04-30T20:44:34.664Z,4.33
2023-04-30T20:47:05.030Z,5.20
2023-04-30T20:49:33.441Z,4.97
2023-04-30T20:52:03.210Z,5.60
2023-04-30T20:54:31.692Z,4.43
2023-04-30T20:57:00.395Z,3.40
2023-04-30T20:59:28.657Z,8.87
2023-04-30T21:01:56.947Z,3.60
2023-04-30T21:04:25.262Z,4.70
2023-04-30T21:06:53.517Z,4.83
2023-04-30T21:09:23.279Z,3.00
2023-04-30T21:11:53.253Z,3.70
2023-04-30T21:14:21.714Z,5.03
2023-04-30T21:16:51.243Z,5.23
2023-04-30T21:19:19.545Z,5.23
2023-04-30T21:21:48.991Z,4.70
2023-04-30T21:24:17.314Z,6.60
2023-04-30T21:26:46.992Z,4.20
2023-04-30T21:29:15.500Z,12.60
2023-04-30T21:31:44.242Z,4.67
2023-04-30T21:34:12.687Z,3.60
2023-04-30T21:36:41.356Z,5.50
2023-04-30T21:39:09.573Z,8.40
2023-04-30T21:41:37.792Z,5.57
2023-04-30T21:44:07.395Z,4.30
2023-04-30T21:46:36.039Z,7.33
2023-04-30T21:49:04.429Z,8.57
2023-04-30T21:51:32.636Z,8.40
2023-04-30T21:54:00.880Z,8.07
2023-04-30T21:56:29.054Z,8.83
2023-04-30T21:58:57.282Z,9.63
2023-04-30T22:01:29.828Z,9.17
2023-04-30T22:03:58.667Z,10.17
2023-04-30T22:06:27.122Z,9.00
2023-04-30T22:08:55.405Z,12.67
2023-04-30T22:11:25.168Z,11.70
2023-04-30T22:13:53.346Z,9.47
2023-04-30T22:16:21.569Z,10.23
2023-04-30T22:18:51.547Z,11.10
2023-04-30T22:21:19.707Z,9.73
2023-04-30T22:23:48.679Z,7.73
2023-04-30T22:26:16.846Z,8.50
2023-04-30T22:28:45.008Z,8.83
2023-04-30T22:31:13.322Z,7.10
2023-04-30T22:33:41.585Z,6.50
2023-04-30T22:36:11.438Z,8.53
2023-04-30T22:38:39.677Z,7.77
2023-04-30T22:41:07.932Z,9.00
2023-04-30T22:43:36.759Z,9.83
2023-04-30T22:46:05.054Z,8.13
2023-04-30T22:48:33.621Z,9.27
2023-04-30T22:51:01.885Z,6.70
2023-04-30T22:53:31.497Z,6.97
2023-04-30T22:55:59.668Z,11.17
2023-04-30T22:58:27.958Z,6.57
2023-04-30T23:00:56.173Z,9.40
2023-04-30T23:03:24.402Z,5.50
2023-04-30T23:05:52.552Z,6.60
2023-04-30T23:08:20.791Z,7.40
2023-04-30T23:10:50.321Z,3.90
2023-04-30T23:13:18.469Z,9.33
2023-04-30T23:15:46.660Z,6.50
2023-04-30T23:18:14.882Z,10.80
2023-04-30T23:20:43.126Z,6.20
2023-04-30T23:23:11.294Z,3.90
2023-04-30T23:25:39.792Z,4.77
2023-04-30T23:28:09.503Z,4.90
2023-04-30T23:30:39.943Z,7.30
2023-04-30T23:33:08.247Z,11.63
2023-04-30T23:35:36.756Z,6.20
2023-04-30T23:38:05.058Z,5.70
2023-04-30T23:40:33.222Z,5.93
2023-04-30T23:43:01.692Z,7.50
2023-04-30T23:45:31.308Z,5.53
2023-04-30T23:47:59.599Z,8.53
2023-04-30T23:50:27.967Z,8.37
2023-04-30T23:52:56.587Z,6.40
2023-04-30T23:55:24.798Z,6.70
2023-04-30T23:57:52.991Z,5.53
